sensor_id;sensor_type;location;lat;lon;timestamp;P1;durP1;ratioP1;P2;durP2;ratioP2
68398;SDS011;56258;52.196;13.868;2023-03-04T00:02:13;7.60;;;2.60;;
68398;SDS011;56258;52.196;13.868;2023-03-04T00:04:40;7.82;;;2.53;;
68398;SDS011;56258;52.196;13.868;2023-03-04T00:07:06;7.60;;;2.72;;
68398;SDS011;56258;52.196;13.868;2023-03-04T00:09:33;7.00;;;2.38;;
68398;SDS011;56258;52.196;13.868;2023-03-04T00:11:59;6.93;;;2.53;;
68398;SDS011;56258;52.196;13.868;2023-03-04T00:14:26;6.53;;;2.27;;
68398;SDS011;56258;52.196;13.868;2023-03-04T00:16:55;7.57;;;2.63;;
68398;SDS011;56258;52.196;13.868;2023-03-04T00:19:22;6.88;;;2.63;;
68398;SDS011;56258;52.196;13.868;2023-03-04T00:21:48;8.13;;;3.00;;
68398;SDS011;56258;52.196;13.868;2023-03-04T00:24:15;7.45;;;2.60;;
68398;SDS011;56258;52.196;13.868;2023-03-04T00:26:41;7.57;;;2.67;;
68398;SDS011;56258;52.196;13.868;2023-03-04T00:29:08;7.68;;;2.90;;
68398;SDS011;56258;52.196;13.868;2023-03-04T00:31:35;7.47;;;2.60;;
68398;SDS011;56258;52.196;13.868;2023-03-04T00:34:02;7.03;;;2.42;;
68398;SDS011;56258;52.196;13.868;2023-03-04T00:36:28;7.32;;;2.70;;
68398;SDS011;56258;52.196;13.868;2023-03-04T00:38:55;7.23;;;2.43;;
68398;SDS011;56258;52.196;13.868;2023-03-04T00:41:21;7.22;;;2.50;;
68398;SDS011;56258;52.196;13.868;2023-03-04T00:43:48;7.50;;;2.50;;
68398;SDS011;56258;52.196;13.868;2023-03-04T00:46:15;7.05;;;2.53;;
68398;SDS011;56258;52.196;13.868;2023-03-04T00:48:41;7.60;;;2.42;;
68398;SDS011;56258;52.196;13.868;2023-03-04T00:51:08;7.33;;;2.70;;
68398;SDS011;56258;52.196;13.868;2023-03-04T00:53:34;6.78;;;2.53;;
68398;SDS011;56258;52.196;13.868;2023-03-04T00:56:01;6.88;;;2.50;;
68398;SDS011;56258;52.196;13.868;2023-03-04T00:58:28;7.10;;;2.50;;
68398;SDS011;56258;52.196;13.868;2023-03-04T01:00:54;6.93;;;2.53;;
68398;SDS011;56258;52.196;13.868;2023-03-04T01:03:21;7.87;;;2.50;;
68398;SDS011;56258;52.196;13.868;2023-03-04T01:05:47;8.20;;;3.17;;
68398;SDS011;56258;52.196;13.868;2023-03-04T01:08:14;8.50;;;2.95;;
68398;SDS011;56258;52.196;13.868;2023-03-04T01:10:41;7.43;;;2.80;;
68398;SDS011;56258;52.196;13.868;2023-03-04T01:13:07;7.03;;;2.53;;
68398;SDS011;56258;52.196;13.868;2023-03-04T01:15:34;7.40;;;2.30;;
68398;SDS011;56258;52.196;13.868;2023-03-04T01:18:00;7.82;;;2.88;;
68398;SDS011;56258;52.196;13.868;2023-03-04T01:20:27;8.07;;;3.05;;
68398;SDS011;56258;52.196;13.868;2023-03-04T01:22:54;8.15;;;2.90;;
68398;SDS011;56258;52.196;13.868;2023-03-04T01:25:20;6.93;;;2.50;;
68398;SDS011;56258;52.196;13.868;2023-03-04T01:27:47;7.07;;;2.33;;
68398;SDS011;56258;52.196;13.868;2023-03-04T01:30:13;8.07;;;2.63;;
68398;SDS011;56258;52.196;13.868;2023-03-04T01:32:40;7.65;;;2.60;;
68398;SDS011;56258;52.196;13.868;2023-03-04T01:35:07;7.70;;;2.63;;
68398;SDS011;56258;52.196;13.868;2023-03-04T01:37:33;7.93;;;2.90;;
68398;SDS011;56258;52.196;13.868;2023-03-04T01:40:00;8.33;;;2.90;;
68398;SDS011;56258;52.196;13.868;2023-03-04T01:42:28;7.90;;;2.85;;
68398;SDS011;56258;52.196;13.868;2023-03-04T01:44:57;7.80;;;2.85;;
68398;SDS011;56258;52.196;13.868;2023-03-04T01:47:24;7.93;;;2.88;;
68398;SDS011;56258;52.196;13.868;2023-03-04T01:49:54;7.70;;;2.60;;
68398;SDS011;56258;52.196;13.868;2023-03-04T01:52:22;7.30;;;2.57;;
68398;SDS011;56258;52.196;13.868;2023-03-04T01:54:49;8.35;;;3.10;;
68398;SDS011;56258;52.196;13.868;2023-03-04T01:59:44;7.70;;;2.55;;
68398;SDS011;56258;52.196;13.868;2023-03-04T02:02:11;7.60;;;2.72;;
68398;SDS011;56258;52.196;13.868;2023-03-04T02:04:39;8.00;;;2.80;;
68398;SDS011;56258;52.196;13.868;2023-03-04T02:07:08;8.05;;;2.80;;
68398;SDS011;56258;52.196;13.868;2023-03-04T02:09:35;7.47;;;2.85;;
68398;SDS011;56258;52.196;13.868;2023-03-04T02:12:02;7.55;;;2.90;;
68398;SDS011;56258;52.196;13.868;2023-03-04T02:14:29;7.53;;;2.78;;
68398;SDS011;56258;52.196;13.868;2023-03-04T02:16:55;8.20;;;2.80;;
68398;SDS011;56258;52.196;13.868;2023-03-04T02:21:51;7.43;;;2.42;;
68398;SDS011;56258;52.196;13.868;2023-03-04T02:24:20;7.40;;;2.53;;
68398;SDS011;56258;52.196;13.868;2023-03-04T02:26:54;7.53;;;2.60;;
68398;SDS011;56258;52.196;13.868;2023-03-04T02:29:20;7.13;;;2.77;;
68398;SDS011;56258;52.196;13.868;2023-03-04T02:31:48;8.07;;;2.72;;
68398;SDS011;56258;52.196;13.868;2023-03-04T02:37:08;8.65;;;2.65;;
68398;SDS011;56258;52.196;13.868;2023-03-04T02:39:39;7.72;;;2.50;;
68398;SDS011;56258;52.196;13.868;2023-03-04T02:42:07;7.60;;;2.47;;
68398;SDS011;56258;52.196;13.868;2023-03-04T02:44:35;7.70;;;2.15;;
68398;SDS011;56258;52.196;13.868;2023-03-04T02:47:04;8.95;;;2.30;;
68398;SDS011;56258;52.196;13.868;2023-03-04T02:49:33;10.43;;;2.70;;
68398;SDS011;56258;52.196;13.868;2023-03-04T02:52:03;7.38;;;2.17;;
68398;SDS011;56258;52.196;13.868;2023-03-04T02:54:36;6.73;;;2.10;;
68398;SDS011;56258;52.196;13.868;2023-03-04T02:57:05;7.03;;;2.00;;
68398;SDS011;56258;52.196;13.868;2023-03-04T02:59:35;7.53;;;2.25;;
68398;SDS011;56258;52.196;13.868;2023-03-04T03:02:03;7.80;;;2.40;;
68398;SDS011;56258;52.196;13.868;2023-03-04T03:04:30;7.15;;;2.20;;
68398;SDS011;56258;52.196;13.868;2023-03-04T03:06:57;7.60;;;2.27;;
68398;SDS011;56258;52.196;13.868;2023-03-04T03:09:24;6.55;;;1.80;;
68398;SDS011;56258;52.196;13.868;2023-03-04T03:11:50;7.50;;;2.08;;
68398;SDS011;56258;52.196;13.868;2023-03-04T03:14:17;6.35;;;1.83;;
68398;SDS011;56258;52.196;13.868;2023-03-04T03:16:44;6.22;;;1.90;;
68398;SDS011;56258;52.196;13.868;2023-03-04T03:19:10;6.03;;;2.00;;
68398;SDS011;56258;52.196;13.868;2023-03-04T03:21:37;6.15;;;1.70;;
68398;SDS011;56258;52.196;13.868;2023-03-04T03:24:03;7.18;;;1.80;;
68398;SDS011;56258;52.196;13.868;2023-03-04T03:26:30;6.03;;;1.60;;
68398;SDS011;56258;52.196;13.868;2023-03-04T03:28:57;6.65;;;1.70;;
68398;SDS011;56258;52.196;13.868;2023-03-04T03:31:23;8.20;;;1.50;;
68398;SDS011;56258;52.196;13.868;2023-03-04T03:33:50;5.65;;;1.33;;
68398;SDS011;56258;52.196;13.868;2023-03-04T03:36:17;6.22;;;1.50;;
68398;SDS011;56258;52.196;13.868;2023-03-04T03:38:43;6.10;;;1.38;;
68398;SDS011;56258;52.196;13.868;2023-03-04T03:41:10;6.13;;;1.73;;
68398;SDS011;56258;52.196;13.868;2023-03-04T03:43:36;5.47;;;1.50;;
68398;SDS011;56258;52.196;13.868;2023-03-04T03:46:03;5.97;;;1.40;;
68398;SDS011;56258;52.196;13.868;2023-03-04T03:48:30;5.35;;;1.20;;
68398;SDS011;56258;52.196;13.868;2023-03-04T03:50:56;5.95;;;1.50;;
68398;SDS011;56258;52.196;13.868;2023-03-04T03:53:23;6.65;;;1.35;;
68398;SDS011;56258;52.196;13.868;2023-03-04T03:55:50;6.03;;;1.50;;
68398;SDS011;56258;52.196;13.868;2023-03-04T03:58:16;5.53;;;1.10;;
68398;SDS011;56258;52.196;13.868;2023-03-04T04:00:43;5.78;;;1.30;;
68398;SDS011;56258;52.196;13.868;2023-03-04T04:03:10;5.68;;;1.20;;
68398;SDS011;56258;52.196;13.868;2023-03-04T04:05:40;6.22;;;1.40;;
68398;SDS011;56258;52.196;13.868;2023-03-04T04:08:09;5.93;;;1.10;;
68398;SDS011;56258;52.196;13.868;2023-03-04T04:10:38;5.65;;;1.20;;
68398;SDS011;56258;52.196;13.868;2023-03-04T04:13:05;6.35;;;1.25;;
68398;SDS011;56258;52.196;13.868;2023-03-04T04:15:32;5.60;;;1.23;;
68398;SDS011;56258;52.196;13.868;2023-03-04T04:17:59;6.15;;;1.15;;
68398;SDS011;56258;52.196;13.868;2023-03-04T04:20:25;6.47;;;1.50;;
68398;SDS011;56258;52.196;13.868;2023-03-04T04:22:52;6.72;;;1.10;;
68398;SDS011;56258;52.196;13.868;2023-03-04T04:25:19;5.93;;;1.20;;
68398;SDS011;56258;52.196;13.868;2023-03-04T04:27:45;6.95;;;1.50;;
68398;SDS011;56258;52.196;13.868;2023-03-04T04:30:12;6.45;;;1.50;;
68398;SDS011;56258;52.196;13.868;2023-03-04T04:32:39;4.73;;;1.17;;
68398;SDS011;56258;52.196;13.868;2023-03-04T04:35:05;6.80;;;1.50;;
68398;SDS011;56258;52.196;13.868;2023-03-04T04:37:33;6.40;;;1.15;;
68398;SDS011;56258;52.196;13.868;2023-03-04T04:39:59;6.70;;;0.90;;
68398;SDS011;56258;52.196;13.868;2023-03-04T04:42:26;5.90;;;1.05;;
68398;SDS011;56258;52.196;13.868;2023-03-04T04:44:53;6.50;;;1.40;;
68398;SDS011;56258;52.196;13.868;2023-03-04T04:47:19;6.50;;;1.10;;
68398;SDS011;56258;52.196;13.868;2023-03-04T04:49:46;5.70;;;1.35;;
68398;SDS011;56258;52.196;13.868;2023-03-04T04:52:12;5.93;;;1.20;;
68398;SDS011;56258;52.196;13.868;2023-03-04T04:54:39;6.13;;;1.27;;
68398;SDS011;56258;52.196;13.868;2023-03-04T04:57:06;5.83;;;1.17;;
68398;SDS011;56258;52.196;13.868;2023-03-04T04:59:32;6.38;;;1.17;;
68398;SDS011;56258;52.196;13.868;2023-03-04T05:01:59;5.28;;;1.17;;
68398;SDS011;56258;52.196;13.868;2023-03-04T05:04:26;5.65;;;1.10;;
68398;SDS011;56258;52.196;13.868;2023-03-04T05:06:52;6.47;;;1.27;;
68398;SDS011;56258;52.196;13.868;2023-03-04T05:09:19;5.87;;;1.10;;
68398;SDS011;56258;52.196;13.868;2023-03-04T05:11:48;5.90;;;1.08;;
68398;SDS011;56258;52.196;13.868;2023-03-04T05:14:14;5.68;;;1.00;;
68398;SDS011;56258;52.196;13.868;2023-03-04T05:16:41;5.63;;;1.00;;
68398;SDS011;56258;52.196;13.868;2023-03-04T05:19:08;6.38;;;1.05;;
68398;SDS011;56258;52.196;13.868;2023-03-04T05:21:34;5.53;;;1.00;;
68398;SDS011;56258;52.196;13.868;2023-03-04T05:24:01;5.95;;;1.00;;
68398;SDS011;56258;52.196;13.868;2023-03-04T05:26:27;6.03;;;1.10;;
68398;SDS011;56258;52.196;13.868;2023-03-04T05:28:54;5.95;;;1.00;;
68398;SDS011;56258;52.196;13.868;2023-03-04T05:31:21;5.30;;;1.17;;
68398;SDS011;56258;52.196;13.868;2023-03-04T05:33:47;4.63;;;0.93;;
68398;SDS011;56258;52.196;13.868;2023-03-04T05:36:14;5.07;;;0.80;;
68398;SDS011;56258;52.196;13.868;2023-03-04T05:38:40;6.20;;;0.85;;
68398;SDS011;56258;52.196;13.868;2023-03-04T05:41:07;5.22;;;0.90;;
68398;SDS011;56258;52.196;13.868;2023-03-04T05:43:34;5.28;;;0.80;;
68398;SDS011;56258;52.196;13.868;2023-03-04T05:46:02;5.83;;;0.97;;
68398;SDS011;56258;52.196;13.868;2023-03-04T05:48:29;6.15;;;0.90;;
68398;SDS011;56258;52.196;13.868;2023-03-04T05:50:57;5.93;;;1.17;;
68398;SDS011;56258;52.196;13.868;2023-03-04T05:53:26;4.93;;;0.75;;
68398;SDS011;56258;52.196;13.868;2023-03-04T05:55:53;5.30;;;0.80;;
68398;SDS011;56258;52.196;13.868;2023-03-04T05:58:20;4.37;;;0.77;;
68398;SDS011;56258;52.196;13.868;2023-03-04T06:00:47;5.35;;;0.77;;
68398;SDS011;56258;52.196;13.868;2023-03-04T06:03:14;5.15;;;0.70;;
68398;SDS011;56258;52.196;13.868;2023-03-04T06:05:41;5.38;;;0.80;;
68398;SDS011;56258;52.196;13.868;2023-03-04T06:08:09;7.38;;;1.10;;
68398;SDS011;56258;52.196;13.868;2023-03-04T06:10:36;4.70;;;0.97;;
68398;SDS011;56258;52.196;13.868;2023-03-04T06:13:04;6.00;;;0.80;;
68398;SDS011;56258;52.196;13.868;2023-03-04T06:15:31;6.85;;;0.90;;
68398;SDS011;56258;52.196;13.868;2023-03-04T06:17:57;11.07;;;1.13;;
68398;SDS011;56258;52.196;13.868;2023-03-04T06:20:24;5.05;;;0.63;;
68398;SDS011;56258;52.196;13.868;2023-03-04T06:22:50;8.90;;;0.70;;
68398;SDS011;56258;52.196;13.868;2023-03-04T06:25:17;7.40;;;0.80;;
68398;SDS011;56258;52.196;13.868;2023-03-04T06:27:44;4.97;;;0.80;;
68398;SDS011;56258;52.196;13.868;2023-03-04T06:30:10;7.30;;;0.90;;
68398;SDS011;56258;52.196;13.868;2023-03-04T06:32:37;4.70;;;0.70;;
68398;SDS011;56258;52.196;13.868;2023-03-04T06:35:05;5.90;;;0.83;;
68398;SDS011;56258;52.196;13.868;2023-03-04T06:37:32;5.97;;;0.73;;
68398;SDS011;56258;52.196;13.868;2023-03-04T06:39:58;7.63;;;0.65;;
68398;SDS011;56258;52.196;13.868;2023-03-04T06:42:25;7.65;;;0.77;;
68398;SDS011;56258;52.196;13.868;2023-03-04T06:44:52;7.60;;;0.63;;
68398;SDS011;56258;52.196;13.868;2023-03-04T06:47:18;5.23;;;0.70;;
68398;SDS011;56258;52.196;13.868;2023-03-04T06:49:45;8.43;;;0.65;;
68398;SDS011;56258;52.196;13.868;2023-03-04T06:52:11;6.68;;;0.68;;
68398;SDS011;56258;52.196;13.868;2023-03-04T06:54:38;8.85;;;0.70;;
68398;SDS011;56258;52.196;13.868;2023-03-04T06:57:05;7.25;;;0.70;;
68398;SDS011;56258;52.196;13.868;2023-03-04T06:59:32;6.30;;;0.73;;
68398;SDS011;56258;52.196;13.868;2023-03-04T07:01:59;5.90;;;0.55;;
68398;SDS011;56258;52.196;13.868;2023-03-04T07:04:26;5.15;;;0.60;;
68398;SDS011;56258;52.196;13.868;2023-03-04T07:06:53;6.90;;;0.60;;
68398;SDS011;56258;52.196;13.868;2023-03-04T07:09:19;5.07;;;0.60;;
68398;SDS011;56258;52.196;13.868;2023-03-04T07:11:46;6.43;;;1.00;;
68398;SDS011;56258;52.196;13.868;2023-03-04T07:14:12;3.92;;;0.50;;
68398;SDS011;56258;52.196;13.868;2023-03-04T07:16:39;9.35;;;0.68;;
68398;SDS011;56258;52.196;13.868;2023-03-04T07:19:06;4.38;;;0.47;;
68398;SDS011;56258;52.196;13.868;2023-03-04T07:21:32;6.65;;;0.70;;
68398;SDS011;56258;52.196;13.868;2023-03-04T07:23:59;6.93;;;0.40;;
68398;SDS011;56258;52.196;13.868;2023-03-04T07:26:26;5.90;;;0.77;;
68398;SDS011;56258;52.196;13.868;2023-03-04T07:28:52;5.88;;;0.60;;
68398;SDS011;56258;52.196;13.868;2023-03-04T07:33:50;5.32;;;0.63;;
68398;SDS011;56258;52.196;13.868;2023-03-04T07:36:17;4.20;;;0.53;;
68398;SDS011;56258;52.196;13.868;2023-03-04T07:38:45;5.05;;;0.60;;
68398;SDS011;56258;52.196;13.868;2023-03-04T07:41:14;4.90;;;0.50;;
68398;SDS011;56258;52.196;13.868;2023-03-04T07:43:41;4.75;;;0.60;;
68398;SDS011;56258;52.196;13.868;2023-03-04T07:46:09;4.65;;;0.50;;
68398;SDS011;56258;52.196;13.868;2023-03-04T07:48:36;5.40;;;0.50;;
68398;SDS011;56258;52.196;13.868;2023-03-04T07:51:07;5.00;;;0.50;;
68398;SDS011;56258;52.196;13.868;2023-03-04T07:53:38;5.30;;;0.50;;
68398;SDS011;56258;52.196;13.868;2023-03-04T07:56:06;5.32;;;0.55;;
68398;SDS011;56258;52.196;13.868;2023-03-04T07:58:35;4.43;;;0.40;;
68398;SDS011;56258;52.196;13.868;2023-03-04T08:01:07;3.77;;;0.40;;
68398;SDS011;56258;52.196;13.868;2023-03-04T08:03:41;4.65;;;0.43;;
68398;SDS011;56258;52.196;13.868;2023-03-04T08:06:09;5.57;;;0.50;;
68398;SDS011;56258;52.196;13.868;2023-03-04T08:08:37;3.97;;;0.40;;
68398;SDS011;56258;52.196;13.868;2023-03-04T08:11:08;4.20;;;0.50;;
68398;SDS011;56258;52.196;13.868;2023-03-04T08:13:37;3.93;;;0.50;;
68398;SDS011;56258;52.196;13.868;2023-03-04T08:16:04;5.22;;;0.40;;
68398;SDS011;56258;52.196;13.868;2023-03-04T08:18:31;3.10;;;0.40;;
68398;SDS011;56258;52.196;13.868;2023-03-04T08:20:58;4.97;;;0.40;;
68398;SDS011;56258;52.196;13.868;2023-03-04T08:23:25;3.95;;;0.55;;
68398;SDS011;56258;52.196;13.868;2023-03-04T08:25:52;3.17;;;0.47;;
68398;SDS011;56258;52.196;13.868;2023-03-04T08:28:19;4.45;;;0.40;;
68398;SDS011;56258;52.196;13.868;2023-03-04T08:30:51;3.25;;;0.40;;
68398;SDS011;56258;52.196;13.868;2023-03-04T08:33:19;4.75;;;0.65;;
68398;SDS011;56258;52.196;13.868;2023-03-04T08:35:46;4.43;;;0.32;;
68398;SDS011;56258;52.196;13.868;2023-03-04T08:38:13;3.97;;;0.40;;
68398;SDS011;56258;52.196;13.868;2023-03-04T08:40:39;3.10;;;0.30;;
68398;SDS011;56258;52.196;13.868;2023-03-04T08:43:06;2.75;;;0.45;;
68398;SDS011;56258;52.196;13.868;2023-03-04T08:45:32;4.30;;;0.40;;
68398;SDS011;56258;52.196;13.868;2023-03-04T08:47:59;4.03;;;0.47;;
68398;SDS011;56258;52.196;13.868;2023-03-04T08:50:26;4.50;;;0.60;;
68398;SDS011;56258;52.196;13.868;2023-03-04T08:52:52;4.13;;;0.52;;
68398;SDS011;56258;52.196;13.868;2023-03-04T08:55:19;3.00;;;0.40;;
68398;SDS011;56258;52.196;13.868;2023-03-04T08:57:46;4.07;;;0.40;;
68398;SDS011;56258;52.196;13.868;2023-03-04T09:00:12;3.92;;;0.40;;
68398;SDS011;56258;52.196;13.868;2023-03-04T09:02:39;3.33;;;0.40;;
68398;SDS011;56258;52.196;13.868;2023-03-04T09:05:06;3.80;;;0.40;;
68398;SDS011;56258;52.196;13.868;2023-03-04T09:07:33;2.78;;;0.45;;
68398;SDS011;56258;52.196;13.868;2023-03-04T09:10:00;2.65;;;0.25;;
68398;SDS011;56258;52.196;13.868;2023-03-04T09:12:26;3.72;;;0.40;;
68398;SDS011;56258;52.196;13.868;2023-03-04T09:14:53;3.57;;;0.30;;
68398;SDS011;56258;52.196;13.868;2023-03-04T09:17:36;2.33;;;0.30;;
68398;SDS011;56258;52.196;13.868;2023-03-04T09:20:03;4.05;;;0.40;;
68398;SDS011;56258;52.196;13.868;2023-03-04T09:22:30;3.45;;;0.40;;
68398;SDS011;56258;52.196;13.868;2023-03-04T09:24:56;3.97;;;0.40;;
68398;SDS011;56258;52.196;13.868;2023-03-04T09:27:23;3.30;;;0.40;;
68398;SDS011;56258;52.196;13.868;2023-03-04T09:29:50;2.30;;;0.30;;
68398;SDS011;56258;52.196;13.868;2023-03-04T09:32:16;3.70;;;0.40;;
68398;SDS011;56258;52.196;13.868;2023-03-04T09:34:43;2.92;;;0.30;;
68398;SDS011;56258;52.196;13.868;2023-03-04T09:37:09;3.80;;;0.40;;
68398;SDS011;56258;52.196;13.868;2023-03-04T09:39:36;2.80;;;0.40;;
68398;SDS011;56258;52.196;13.868;2023-03-04T09:42:03;2.28;;;0.30;;
68398;SDS011;56258;52.196;13.868;2023-03-04T09:44:37;2.42;;;0.30;;
68398;SDS011;56258;52.196;13.868;2023-03-04T09:47:09;2.50;;;0.40;;
68398;SDS011;56258;52.196;13.868;2023-03-04T09:49:43;3.33;;;0.30;;
68398;SDS011;56258;52.196;13.868;2023-03-04T09:55:01;3.15;;;0.30;;
68398;SDS011;56258;52.196;13.868;2023-03-04T10:16:48;3.47;;;0.30;;
68398;SDS011;56258;52.196;13.868;2023-03-04T10:22:22;2.38;;;0.30;;
68398;SDS011;56258;52.196;13.868;2023-03-04T10:24:54;3.60;;;0.40;;
68398;SDS011;56258;52.196;13.868;2023-03-04T10:27:23;1.77;;;0.22;;
68398;SDS011;56258;52.196;13.868;2023-03-04T10:29:51;3.45;;;0.30;;
68398;SDS011;56258;52.196;13.868;2023-03-04T10:32:18;4.20;;;0.30;;
68398;SDS011;56258;52.196;13.868;2023-03-04T10:34:46;2.53;;;0.25;;
68398;SDS011;56258;52.196;13.868;2023-03-04T10:37:13;2.60;;;0.30;;
68398;SDS011;56258;52.196;13.868;2023-03-04T10:39:43;2.60;;;0.20;;
68398;SDS011;56258;52.196;13.868;2023-03-04T10:44:42;2.30;;;0.30;;
68398;SDS011;56258;52.196;13.868;2023-03-04T10:47:09;2.72;;;0.30;;
68398;SDS011;56258;52.196;13.868;2023-03-04T10:49:50;2.85;;;0.30;;
68398;SDS011;56258;52.196;13.868;2023-03-04T10:55:15;2.50;;;0.30;;
68398;SDS011;56258;52.196;13.868;2023-03-04T10:57:47;2.33;;;0.30;;
68398;SDS011;56258;52.196;13.868;2023-03-04T11:00:30;2.60;;;0.30;;
68398;SDS011;56258;52.196;13.868;2023-03-04T11:04:01;3.30;;;0.40;;
68398;SDS011;56258;52.196;13.868;2023-03-04T11:08:57;2.63;;;0.30;;
68398;SDS011;56258;52.196;13.868;2023-03-04T11:11:37;2.63;;;0.30;;
68398;SDS011;56258;52.196;13.868;2023-03-04T11:14:51;1.92;;;0.30;;
68398;SDS011;56258;52.196;13.868;2023-03-04T11:17:21;2.50;;;0.30;;
68398;SDS011;56258;52.196;13.868;2023-03-04T11:19:54;2.33;;;0.30;;
68398;SDS011;56258;52.196;13.868;2023-03-04T11:22:30;2.97;;;0.30;;
68398;SDS011;56258;52.196;13.868;2023-03-04T11:25:10;3.00;;;0.30;;
68398;SDS011;56258;52.196;13.868;2023-03-04T11:27:54;2.25;;;0.30;;
68398;SDS011;56258;52.196;13.868;2023-03-04T11:30:40;2.90;;;0.40;;
68398;SDS011;56258;52.196;13.868;2023-03-04T11:33:12;2.65;;;0.30;;
68398;SDS011;56258;52.196;13.868;2023-03-04T11:35:48;3.13;;;0.35;;
68398;SDS011;56258;52.196;13.868;2023-03-04T11:38:45;2.63;;;0.20;;
68398;SDS011;56258;52.196;13.868;2023-03-04T11:41:31;3.42;;;0.30;;
68398;SDS011;56258;52.196;13.868;2023-03-04T11:44:01;5.00;;;0.30;;
68398;SDS011;56258;52.196;13.868;2023-03-04T11:54:58;5.53;;;0.40;;
68398;SDS011;56258;52.196;13.868;2023-03-04T12:05:38;7.00;;;0.50;;
68398;SDS011;56258;52.196;13.868;2023-03-04T12:11:25;3.92;;;0.30;;
68398;SDS011;56258;52.196;13.868;2023-03-04T12:19:36;4.27;;;0.20;;
68398;SDS011;56258;52.196;13.868;2023-03-04T12:30:44;5.07;;;0.22;;
68398;SDS011;56258;52.196;13.868;2023-03-04T12:44:15;3.85;;;0.30;;
68398;SDS011;56258;52.196;13.868;2023-03-04T12:49:31;4.00;;;0.20;;
68398;SDS011;56258;52.196;13.868;2023-03-04T12:55:15;3.22;;;0.30;;
68398;SDS011;56258;52.196;13.868;2023-03-04T12:57:44;4.80;;;0.35;;
68398;SDS011;56258;52.196;13.868;2023-03-04T13:03:17;3.67;;;0.28;;
68398;SDS011;56258;52.196;13.868;2023-03-04T13:08:28;4.22;;;0.35;;
68398;SDS011;56258;52.196;13.868;2023-03-04T13:11:00;4.47;;;0.30;;
68398;SDS011;56258;52.196;13.868;2023-03-04T13:13:45;3.27;;;0.30;;
68398;SDS011;56258;52.196;13.868;2023-03-04T13:16:31;4.32;;;0.30;;
68398;SDS011;56258;52.196;13.868;2023-03-04T13:25:02;3.80;;;0.30;;
68398;SDS011;56258;52.196;13.868;2023-03-04T13:35:47;4.53;;;0.30;;
68398;SDS011;56258;52.196;13.868;2023-03-04T13:43:47;5.18;;;0.40;;
68398;SDS011;56258;52.196;13.868;2023-03-04T13:51:26;6.50;;;0.40;;
68398;SDS011;56258;52.196;13.868;2023-03-04T13:59:07;3.70;;;0.30;;
68398;SDS011;56258;52.196;13.868;2023-03-04T14:04:16;2.90;;;0.20;;
68398;SDS011;56258;52.196;13.868;2023-03-04T14:06:48;4.07;;;0.20;;
68398;SDS011;56258;52.196;13.868;2023-03-04T14:09:20;4.60;;;0.40;;
68398;SDS011;56258;52.196;13.868;2023-03-04T14:12:04;3.75;;;0.30;;
68398;SDS011;56258;52.196;13.868;2023-03-04T14:17:17;5.32;;;0.40;;
68398;SDS011;56258;52.196;13.868;2023-03-04T14:19:48;3.63;;;0.20;;
68398;SDS011;56258;52.196;13.868;2023-03-04T14:27:30;3.30;;;0.20;;
68398;SDS011;56258;52.196;13.868;2023-03-04T14:30:02;2.47;;;0.20;;
68398;SDS011;56258;52.196;13.868;2023-03-04T14:32:34;3.40;;;0.20;;
68398;SDS011;56258;52.196;13.868;2023-03-04T14:35:02;3.80;;;0.30;;
68398;SDS011;56258;52.196;13.868;2023-03-04T14:38:14;3.28;;;0.30;;
68398;SDS011;56258;52.196;13.868;2023-03-04T14:40:31;4.80;;;0.25;;
68398;SDS011;56258;52.196;13.868;2023-03-04T14:43:09;2.97;;;0.30;;
68398;SDS011;56258;52.196;13.868;2023-03-04T14:45:41;2.53;;;0.20;;
68398;SDS011;56258;52.196;13.868;2023-03-04T14:48:14;4.10;;;0.40;;
68398;SDS011;56258;52.196;13.868;2023-03-04T14:53:56;3.25;;;0.30;;
68398;SDS011;56258;52.196;13.868;2023-03-04T14:56:27;2.97;;;0.20;;
68398;SDS011;56258;52.196;13.868;2023-03-04T14:58:57;3.17;;;0.20;;
68398;SDS011;56258;52.196;13.868;2023-03-04T15:01:28;2.97;;;0.30;;
68398;SDS011;56258;52.196;13.868;2023-03-04T15:03:55;4.25;;;0.30;;
68398;SDS011;56258;52.196;13.868;2023-03-04T15:06:24;2.83;;;0.30;;
68398;SDS011;56258;52.196;13.868;2023-03-04T15:08:59;4.47;;;0.30;;
68398;SDS011;56258;52.196;13.868;2023-03-04T15:12:10;3.53;;;0.20;;
68398;SDS011;56258;52.196;13.868;2023-03-04T15:19:56;3.42;;;0.30;;
68398;SDS011;56258;52.196;13.868;2023-03-04T15:22:24;4.38;;;0.30;;
68398;SDS011;56258;52.196;13.868;2023-03-04T15:24:51;3.33;;;0.30;;
68398;SDS011;56258;52.196;13.868;2023-03-04T15:27:17;3.92;;;0.30;;
68398;SDS011;56258;52.196;13.868;2023-03-04T15:29:50;2.92;;;0.30;;
68398;SDS011;56258;52.196;13.868;2023-03-04T15:32:22;4.03;;;0.50;;
68398;SDS011;56258;52.196;13.868;2023-03-04T15:34:48;4.15;;;0.40;;
68398;SDS011;56258;52.196;13.868;2023-03-04T15:37:20;2.70;;;0.30;;
68398;SDS011;56258;52.196;13.868;2023-03-04T15:39:49;4.05;;;0.20;;
68398;SDS011;56258;52.196;13.868;2023-03-04T15:42:17;3.65;;;0.30;;
68398;SDS011;56258;52.196;13.868;2023-03-04T15:44:44;3.97;;;0.30;;
68398;SDS011;56258;52.196;13.868;2023-03-04T15:47:12;4.25;;;0.30;;
68398;SDS011;56258;52.196;13.868;2023-03-04T15:49:42;4.17;;;0.30;;
68398;SDS011;56258;52.196;13.868;2023-03-04T15:52:14;3.58;;;0.30;;
68398;SDS011;56258;52.196;13.868;2023-03-04T15:54:44;3.25;;;0.30;;
68398;SDS011;56258;52.196;13.868;2023-03-04T15:57:19;3.10;;;0.30;;
68398;SDS011;56258;52.196;13.868;2023-03-04T15:59:48;3.63;;;0.30;;
68398;SDS011;56258;52.196;13.868;2023-03-04T16:02:22;2.97;;;0.30;;
68398;SDS011;56258;52.196;13.868;2023-03-04T16:04:49;3.90;;;0.20;;
68398;SDS011;56258;52.196;13.868;2023-03-04T16:07:20;2.75;;;0.20;;
68398;SDS011;56258;52.196;13.868;2023-03-04T16:09:52;1.88;;;0.17;;
68398;SDS011;56258;52.196;13.868;2023-03-04T16:12:25;2.60;;;0.20;;
68398;SDS011;56258;52.196;13.868;2023-03-04T16:14:52;2.70;;;0.20;;
68398;SDS011;56258;52.196;13.868;2023-03-04T16:17:19;3.80;;;0.28;;
68398;SDS011;56258;52.196;13.868;2023-03-04T16:19:46;2.85;;;0.30;;
68398;SDS011;56258;52.196;13.868;2023-03-04T16:22:16;2.85;;;0.28;;
68398;SDS011;56258;52.196;13.868;2023-03-04T16:24:49;2.15;;;0.30;;
68398;SDS011;56258;52.196;13.868;2023-03-04T16:27:17;3.87;;;0.30;;
68398;SDS011;56258;52.196;13.868;2023-03-04T16:29:45;3.15;;;0.30;;
68398;SDS011;56258;52.196;13.868;2023-03-04T16:32:11;3.35;;;0.20;;
68398;SDS011;56258;52.196;13.868;2023-03-04T16:34:38;3.40;;;0.22;;
68398;SDS011;56258;52.196;13.868;2023-03-04T16:37:06;3.90;;;0.20;;
68398;SDS011;56258;52.196;13.868;2023-03-04T16:39:40;2.60;;;0.20;;
68398;SDS011;56258;52.196;13.868;2023-03-04T16:42:12;3.05;;;0.20;;
68398;SDS011;56258;52.196;13.868;2023-03-04T16:44:41;2.88;;;0.30;;
68398;SDS011;56258;52.196;13.868;2023-03-04T16:47:08;2.72;;;0.20;;
68398;SDS011;56258;52.196;13.868;2023-03-04T16:49:34;2.60;;;0.25;;
68398;SDS011;56258;52.196;13.868;2023-03-04T16:52:01;4.07;;;0.30;;
68398;SDS011;56258;52.196;13.868;2023-03-04T16:54:29;2.58;;;0.20;;
68398;SDS011;56258;52.196;13.868;2023-03-04T16:56:58;3.33;;;0.30;;
68398;SDS011;56258;52.196;13.868;2023-03-04T16:59:26;3.25;;;0.30;;
68398;SDS011;56258;52.196;13.868;2023-03-04T17:01:53;2.90;;;0.25;;
68398;SDS011;56258;52.196;13.868;2023-03-04T17:04:21;7.17;;;0.40;;
68398;SDS011;56258;52.196;13.868;2023-03-04T17:06:48;3.95;;;0.30;;
68398;SDS011;56258;52.196;13.868;2023-03-04T17:09:14;3.83;;;0.30;;
68398;SDS011;56258;52.196;13.868;2023-03-04T17:11:41;4.28;;;0.30;;
68398;SDS011;56258;52.196;13.868;2023-03-04T17:14:08;4.53;;;0.28;;